Time;durP1;ratioP1;P1;durP2;ratioP2;P2;SDS_P1;SDS_P2;PMS_P1;PMS_P2;Temp;Humidity;BMP_temperature;BMP_pressure;BME280_temperature;BME280_humidity;BME280_pressure;Samples;Min_cycle;Max_cycle;Signal;HPM_P1;HPM_P2
2023/05/21 00:00:59;;;;;;;4.53;2.63;;;;;;;;;;5031043;28;21194;-67
2023/05/21 00:03:26;;;;;;;10.88;3.88;;;;;;;;;;5031541;28;20702;-67
2023/05/21 00:05:52;;;;;;;6.80;2.70;;;;;;;;;;5031663;28;20211;-67
2023/05/21 00:08:17;;;;;;;5.78;2.83;;;;;;;;;;5030438;28;20744;-67
2023/05/21 00:10:42;;;;;;;5.30;3.20;;;;;;;;;;5031353;28;20223;-67
2023/05/21 00:13:09;;;;;;;3.97;2.80;;;;;;;;;;5031377;28;20235;-66
2023/05/21 00:15:34;;;;;;;5.32;2.75;;;;;;;;;;5048736;28;20211;-68
2023/05/21 00:18:00;;;;;;;4.82;3.00;;;;;;;;;;5051215;28;20217;-66
2023/05/21 00:20:25;;;;;;;4.82;3.20;;;;;;;;;;5050943;28;20203;-67
2023/05/21 00:22:51;;;;;;;5.22;3.25;;;;;;;;;;5050609;28;20227;-67
2023/05/21 00:25:16;;;;;;;7.32;3.55;;;;;;;;;;5050685;28;20203;-67
2023/05/21 00:27:42;;;;;;;5.55;3.28;;;;;;;;;;5051179;28;20203;-67
2023/05/21 00:30:07;;;;;;;8.05;3.45;;;;;;;;;;5049898;28;20227;-67
2023/05/21 00:32:32;;;;;;;5.28;3.20;;;;;;;;;;5051309;28;20588;-67
2023/05/21 00:34:58;;;;;;;6.80;3.33;;;;;;;;;;5051102;28;20215;-67
2023/05/21 00:37:23;;;;;;;5.40;3.33;;;;;;;;;;5049826;28;20222;-67
2023/05/21 00:39:49;;;;;;;7.70;3.53;;;;;;;;;;5050958;28;20249;-67
2023/05/21 00:42:17;;;;;;;6.68;3.33;;;;;;;;;;5049212;28;20621;-67
2023/05/21 00:44:45;;;;;;;6.22;3.85;;;;;;;;;;5048991;28;20214;-67
2023/05/21 00:47:11;;;;;;;6.28;3.80;;;;;;;;;;5050372;28;20947;-66
2023/05/21 00:49:36;;;;;;;5.22;3.45;;;;;;;;;;5050797;28;20215;-67
2023/05/21 00:52:01;;;;;;;8.23;3.30;;;;;;;;;;5049603;28;20215;-66
2023/05/21 00:54:26;;;;;;;5.40;3.33;;;;;;;;;;5050799;28;20215;-67
2023/05/21 00:56:52;;;;;;;5.75;3.58;;;;;;;;;;5050488;28;20219;-67
2023/05/21 00:59:17;;;;;;;7.00;3.90;;;;;;;;;;5048376;28;20725;-67
2023/05/21 01:01:44;;;;;;;5.90;3.80;;;;;;;;;;5050460;28;20211;-67
2023/05/21 01:04:09;;;;;;;7.63;3.90;;;;;;;;;;5048528;28;20239;-66
2023/05/21 01:06:34;;;;;;;7.28;3.45;;;;;;;;;;5050411;28;20254;-67
2023/05/21 01:09:01;;;;;;;6.22;3.50;;;;;;;;;;5050516;28;20390;-67
2023/05/21 01:11:45;;;;;;;5.90;4.00;;;;;;;;;;5049362;28;20249;-67
2023/05/21 01:14:11;;;;;;;5.45;3.90;;;;;;;;;;5049837;28;20337;-66
2023/05/21 01:16:37;;;;;;;6.57;3.80;;;;;;;;;;5050170;28;20290;-67
2023/05/21 01:19:03;;;;;;;6.38;3.72;;;;;;;;;;5036832;28;20255;-67
2023/05/21 01:21:28;;;;;;;6.38;3.63;;;;;;;;;;5030406;28;20242;-67
2023/05/21 01:23:53;;;;;;;6.90;4.38;;;;;;;;;;5030341;28;20215;-67
2023/05/21 01:26:18;;;;;;;6.90;4.13;;;;;;;;;;5029046;28;20215;-67
2023/05/21 01:28:44;;;;;;;7.43;4.32;;;;;;;;;;5030193;28;20216;-67
2023/05/21 01:31:15;;;;;;;8.13;4.13;;;;;;;;;;5029788;28;20302;-67
2023/05/21 01:33:42;;;;;;;7.88;4.32;;;;;;;;;;5028310;28;20217;-67
2023/05/21 01:36:08;;;;;;;6.30;3.92;;;;;;;;;;5029888;28;20211;-66
2023/05/21 01:38:36;;;;;;;9.63;4.20;;;;;;;;;;5030166;28;20207;-67
2023/05/21 01:41:05;;;;;;;7.50;4.28;;;;;;;;;;5029102;28;20211;-66
2023/05/21 01:43:31;;;;;;;6.55;4.05;;;;;;;;;;5030118;28;20208;-67
2023/05/21 01:45:56;;;;;;;7.28;4.40;;;;;;;;;;5028933;28;20233;-67
2023/05/21 01:48:22;;;;;;;6.95;4.28;;;;;;;;;;5027631;28;20267;-67
2023/05/21 01:50:47;;;;;;;5.97;4.45;;;;;;;;;;5028727;28;20605;-67
2023/05/21 01:53:12;;;;;;;8.48;4.63;;;;;;;;;;5027622;28;20214;-67
2023/05/21 01:55:40;;;;;;;7.32;4.80;;;;;;;;;;5012162;28;20261;-67
2023/05/21 01:58:06;;;;;;;8.23;4.45;;;;;;;;;;5029412;28;20278;-66
2023/05/21 02:00:31;;;;;;;6.70;4.07;;;;;;;;;;5029271;28;20224;-67
2023/05/21 02:02:57;;;;;;;7.20;4.38;;;;;;;;;;5029903;28;20213;-67
2023/05/21 02:05:22;;;;;;;8.25;4.20;;;;;;;;;;5029646;28;20651;-67
2023/05/21 02:07:49;;;;;;;5.18;3.83;;;;;;;;;;5029286;28;20216;-67
2023/05/21 02:10:15;;;;;;;8.35;4.38;;;;;;;;;;5029397;28;20216;-67
2023/05/21 02:12:40;;;;;;;6.88;4.88;;;;;;;;;;5029865;28;20283;-67
2023/05/21 02:15:06;;;;;;;8.70;4.80;;;;;;;;;;5044644;28;20718;-65
2023/05/21 02:17:32;;;;;;;9.32;4.47;;;;;;;;;;5053442;28;20246;-67
2023/05/21 02:20:10;;;;;;;7.60;4.40;;;;;;;;;;5053491;28;20591;-67
2023/05/21 02:22:39;;;;;;;7.53;4.57;;;;;;;;;;5052553;28;20211;-68
2023/05/21 02:25:06;;;;;;;8.25;4.93;;;;;;;;;;5053065;28;20265;-67
2023/05/21 02:27:31;;;;;;;7.47;4.72;;;;;;;;;;5053396;28;20729;-67
2023/05/21 02:29:56;;;;;;;6.80;4.72;;;;;;;;;;5052472;28;20318;-67
2023/05/21 02:32:22;;;;;;;6.45;4.50;;;;;;;;;;5053119;28;20571;-67
2023/05/21 02:34:48;;;;;;;7.03;4.60;;;;;;;;;;5053411;28;20260;-68
2023/05/21 02:37:14;;;;;;;6.32;4.57;;;;;;;;;;5052191;28;20222;-67
2023/05/21 02:39:39;;;;;;;8.73;4.80;;;;;;;;;;5053264;28;20211;-67
2023/05/21 02:42:04;;;;;;;10.60;4.85;;;;;;;;;;5052896;28;20243;-66
2023/05/21 02:44:30;;;;;;;9.25;4.85;;;;;;;;;;5050872;28;20210;-67
2023/05/21 02:46:55;;;;;;;6.68;4.70;;;;;;;;;;5053281;28;20264;-67
2023/05/21 02:49:20;;;;;;;7.53;4.78;;;;;;;;;;5052402;28;20211;-67
2023/05/21 02:51:45;;;;;;;7.53;4.82;;;;;;;;;;5052540;28;20317;-67
2023/05/21 02:54:10;;;;;;;8.15;5.13;;;;;;;;;;5052492;28;20746;-66
2023/05/21 02:56:36;;;;;;;6.82;4.70;;;;;;;;;;5052200;28;20222;-67
2023/05/21 02:59:01;;;;;;;7.18;4.88;;;;;;;;;;5052539;28;20207;-66
2023/05/21 03:01:26;;;;;;;7.88;4.95;;;;;;;;;;5052836;28;20338;-67
2023/05/21 03:03:51;;;;;;;7.88;4.97;;;;;;;;;;5052191;28;20564;-67
2023/05/21 03:06:17;;;;;;;7.20;4.85;;;;;;;;;;5052505;28;20293;-67
2023/05/21 03:08:42;;;;;;;9.40;5.05;;;;;;;;;;5052866;28;20685;-67
2023/05/21 03:11:07;;;;;;;7.50;5.22;;;;;;;;;;5051373;28;20249;-66
2023/05/21 03:13:32;;;;;;;7.70;5.20;;;;;;;;;;5052497;28;20207;-67
2023/05/21 03:15:58;;;;;;;7.50;5.20;;;;;;;;;;5052493;28;20207;-67
2023/05/21 03:18:23;;;;;;;6.95;4.95;;;;;;;;;;5051163;28;20227;-67
2023/05/21 03:20:48;;;;;;;7.45;5.50;;;;;;;;;;5052578;28;20211;-67
2023/05/21 03:23:14;;;;;;;7.65;5.20;;;;;;;;;;5052212;28;20721;-67
2023/05/21 03:25:39;;;;;;;7.32;5.53;;;;;;;;;;5050996;28;20298;-68
2023/05/21 03:28:05;;;;;;;7.38;5.30;;;;;;;;;;5051444;28;20298;-67
2023/05/21 03:30:31;;;;;;;6.80;5.00;;;;;;;;;;5051953;28;20223;-67
2023/05/21 03:32:56;;;;;;;8.52;4.95;;;;;;;;;;5051789;28;20257;-67
2023/05/21 03:35:21;;;;;;;7.40;5.28;;;;;;;;;;5051817;28;20203;-68
2023/05/21 03:37:47;;;;;;;9.15;4.90;;;;;;;;;;5052252;28;20203;-68
2023/05/21 03:40:12;;;;;;;9.35;5.28;;;;;;;;;;5050919;28;20211;-67
2023/05/21 03:42:37;;;;;;;7.63;5.55;;;;;;;;;;5052080;28;20234;-68
2023/05/21 03:45:03;;;;;;;7.82;5.65;;;;;;;;;;5051635;28;20286;-67
2023/05/21 03:47:28;;;;;;;7.65;5.40;;;;;;;;;;5051274;28;20552;-68
2023/05/21 03:49:53;;;;;;;7.75;5.97;;;;;;;;;;5051871;28;20227;-67
2023/05/21 03:52:19;;;;;;;7.95;5.80;;;;;;;;;;5051598;28;20221;-67
2023/05/21 03:54:44;;;;;;;7.88;5.80;;;;;;;;;;5051126;28;20215;-68
2023/05/21 03:57:09;;;;;;;11.82;6.07;;;;;;;;;;5051387;28;20678;-67
2023/05/21 03:59:35;;;;;;;8.82;5.82;;;;;;;;;;5051807;28;20306;-67
2023/05/21 04:02:00;;;;;;;8.50;6.07;;;;;;;;;;5050939;28;20206;-67
2023/05/21 04:04:26;;;;;;;9.95;6.30;;;;;;;;;;5051581;28;20249;-67
2023/05/21 04:06:53;;;;;;;6.65;5.60;;;;;;;;;;5050910;28;20211;-67
2023/05/21 04:09:18;;;;;;;9.23;6.25;;;;;;;;;;5051232;28;20248;-67
2023/05/21 04:11:43;;;;;;;9.10;6.05;;;;;;;;;;5051375;28;20215;-67
2023/05/21 04:14:08;;;;;;;9.00;6.63;;;;;;;;;;5050193;28;20934;-66
2023/05/21 04:16:34;;;;;;;10.52;6.00;;;;;;;;;;5051141;28;20219;-67
2023/05/21 04:18:59;;;;;;;7.82;6.40;;;;;;;;;;5051296;28;20233;-67
2023/05/21 04:21:24;;;;;;;10.18;6.47;;;;;;;;;;5050161;28;20288;-68
2023/05/21 04:23:52;;;;;;;10.52;6.85;;;;;;;;;;5051406;28;20597;-68
2023/05/21 04:26:17;;;;;;;8.80;6.50;;;;;;;;;;5050686;28;20287;-67
2023/05/21 04:28:44;;;;;;;7.90;6.55;;;;;;;;;;5050455;28;20293;-67
2023/05/21 04:31:11;;;;;;;8.02;6.15;;;;;;;;;;5050468;28;20437;-67
2023/05/21 04:33:36;;;;;;;7.72;6.13;;;;;;;;;;5051220;28;20270;-69
2023/05/21 04:36:02;;;;;;;9.55;6.57;;;;;;;;;;5049994;28;20577;-66
2023/05/21 04:38:28;;;;;;;11.88;7.03;;;;;;;;;;5050824;28;20290;-67
2023/05/21 04:40:54;;;;;;;8.15;6.75;;;;;;;;;;5050965;28;20211;-67
2023/05/21 04:43:25;;;;;;;9.05;6.80;;;;;;;;;;5049854;28;20223;-67
2023/05/21 04:45:51;;;;;;;8.13;6.53;;;;;;;;;;5050856;28;20222;-67
2023/05/21 04:48:17;;;;;;;8.23;6.25;;;;;;;;;;5050378;28;20570;-68
2023/05/21 04:50:43;;;;;;;8.52;6.60;;;;;;;;;;5049989;28;20223;-67
2023/05/21 04:53:08;;;;;;;10.00;7.10;;;;;;;;;;5050418;28;20221;-66
2023/05/21 04:55:38;;;;;;;9.77;7.10;;;;;;;;;;5050708;28;20204;-67
2023/05/21 04:58:03;;;;;;;10.50;6.75;;;;;;;;;;5049634;28;20222;-67
2023/05/21 05:00:28;;;;;;;8.25;6.78;;;;;;;;;;5050620;28;20262;-67
2023/05/21 05:02:54;;;;;;;9.40;6.70;;;;;;;;;;5050347;28;20203;-67
2023/05/21 05:05:19;;;;;;;9.70;6.47;;;;;;;;;;5049594;28;20219;-68
2023/05/21 05:07:45;;;;;;;8.13;6.60;;;;;;;;;;5050428;28;20207;-67
2023/05/21 05:10:10;;;;;;;10.52;7.20;;;;;;;;;;5049268;28;20231;-67
2023/05/21 05:12:35;;;;;;;9.18;6.72;;;;;;;;;;5050443;28;20229;-67
2023/05/21 05:15:00;;;;;;;10.68;7.00;;;;;;;;;;5049841;28;20569;-64
2023/05/21 05:17:26;;;;;;;10.77;6.90;;;;;;;;;;5049367;28;20211;-67
2023/05/21 05:19:52;;;;;;;7.57;6.78;;;;;;;;;;5050234;28;20222;-68
2023/05/21 05:22:17;;;;;;;9.50;6.90;;;;;;;;;;5049856;28;20584;-67
2023/05/21 05:24:42;;;;;;;8.18;6.80;;;;;;;;;;5049636;28;20215;-67
2023/05/21 05:27:07;;;;;;;9.45;7.00;;;;;;;;;;5049762;28;20222;-66
2023/05/21 05:29:32;;;;;;;9.82;6.93;;;;;;;;;;5050176;28;20207;-68
2023/05/21 05:31:58;;;;;;;9.93;6.30;;;;;;;;;;5049491;28;20222;-68
2023/05/21 05:34:23;;;;;;;9.90;6.50;;;;;;;;;;5049720;28;20211;-67
2023/05/21 05:36:48;;;;;;;7.68;6.22;;;;;;;;;;5050183;28;20210;-67
2023/05/21 05:39:13;;;;;;;11.10;6.57;;;;;;;;;;5048966;28;20678;-67
2023/05/21 05:41:39;;;;;;;9.32;7.30;;;;;;;;;;5050183;28;20210;-67
2023/05/21 05:44:04;;;;;;;9.88;7.03;;;;;;;;;;5049745;28;20264;-66
2023/05/21 05:46:29;;;;;;;12.35;6.97;;;;;;;;;;5049347;28;20749;-66
2023/05/21 05:48:54;;;;;;;9.70;7.10;;;;;;;;;;5049848;28;20210;-67
2023/05/21 05:51:20;;;;;;;8.90;6.80;;;;;;;;;;5053623;28;20230;-67
2023/05/21 05:53:45;;;;;;;10.18;6.95;;;;;;;;;;5053558;28;20293;-68
2023/05/21 05:56:10;;;;;;;10.68;7.80;;;;;;;;;;5053773;28;20215;-67
2023/05/21 05:58:35;;;;;;;9.15;6.90;;;;;;;;;;5054024;28;20202;-67
2023/05/21 06:01:01;;;;;;;10.48;7.28;;;;;;;;;;5052851;28;20299;-66
2023/05/21 06:03:26;;;;;;;11.07;7.18;;;;;;;;;;5053805;28;20709;-67
2023/05/21 06:05:52;;;;;;;11.15;7.13;;;;;;;;;;5054217;28;20290;-67
2023/05/21 06:08:17;;;;;;;10.05;7.18;;;;;;;;;;5052630;28;20544;-68
2023/05/21 06:10:42;;;;;;;8.73;6.50;;;;;;;;;;5053809;28;20227;-67
2023/05/21 06:13:07;;;;;;;9.10;6.93;;;;;;;;;;5053388;28;20280;-66
2023/05/21 06:15:33;;;;;;;10.63;6.75;;;;;;;;;;5052684;28;20283;-67
2023/05/21 06:17:58;;;;;;;12.68;7.90;;;;;;;;;;5053421;28;20207;-67
2023/05/21 06:20:23;;;;;;;11.82;7.65;;;;;;;;;;5053082;28;20588;-67
2023/05/21 06:22:48;;;;;;;11.00;7.00;;;;;;;;;;5052932;28;20249;-67
2023/05/21 06:25:14;;;;;;;10.52;7.25;;;;;;;;;;5053213;28;20597;-68
2023/05/21 06:27:40;;;;;;;11.10;7.30;;;;;;;;;;5052762;28;20737;-67
2023/05/21 06:30:06;;;;;;;9.75;7.40;;;;;;;;;;5052990;28;20233;-65
2023/05/21 06:32:31;;;;;;;9.20;6.57;;;;;;;;;;5053705;28;20804;-68
2023/05/21 06:34:56;;;;;;;15.23;7.63;;;;;;;;;;5052545;28;20199;-67
2023/05/21 06:37:21;;;;;;;14.18;7.18;;;;;;;;;;5053077;28;20297;-67
2023/05/21 06:39:47;;;;;;;10.60;7.55;;;;;;;;;;5053235;28;20219;-68
2023/05/21 06:42:12;;;;;;;13.32;7.13;;;;;;;;;;5052316;28;20583;-67
2023/05/21 06:44:37;;;;;;;8.75;6.55;;;;;;;;;;5053161;28;20218;-68
2023/05/21 06:47:02;;;;;;;8.93;7.18;;;;;;;;;;5052770;28;20199;-66
2023/05/21 06:49:28;;;;;;;10.85;7.10;;;;;;;;;;5052095;28;20772;-68
2023/05/21 06:51:53;;;;;;;10.35;6.97;;;;;;;;;;5053099;28;20219;-68
2023/05/21 06:54:18;;;;;;;13.35;7.07;;;;;;;;;;5052509;28;20227;-67
2023/05/21 06:56:43;;;;;;;9.20;6.85;;;;;;;;;;5052458;28;20215;-68
2023/05/21 06:59:09;;;;;;;10.35;7.28;;;;;;;;;;5052435;28;20686;-67
2023/05/21 07:01:35;;;;;;;11.75;7.20;;;;;;;;;;5052709;28;20710;-68
2023/05/21 07:04:00;;;;;;;10.38;7.18;;;;;;;;;;5051955;28;20215;-68
2023/05/21 07:06:25;;;;;;;11.02;7.70;;;;;;;;;;5052495;28;20215;-68
2023/05/21 07:08:50;;;;;;;10.18;6.90;;;;;;;;;;5052650;28;20253;-68
2023/05/21 07:11:15;;;;;;;11.95;7.07;;;;;;;;;;5051577;28;20237;-67
2023/05/21 07:13:41;;;;;;;9.23;7.05;;;;;;;;;;5052618;28;20211;-68
2023/05/21 07:16:06;;;;;;;12.30;7.35;;;;;;;;;;5051899;28;20215;-67
2023/05/21 07:18:31;;;;;;;9.88;6.78;;;;;;;;;;5051723;28;20592;-67
2023/05/21 07:20:57;;;;;;;9.27;7.15;;;;;;;;;;5052394;28;20245;-68
2023/05/21 07:23:22;;;;;;;9.73;6.65;;;;;;;;;;5052389;28;20207;-67
2023/05/21 07:25:47;;;;;;;9.43;6.55;;;;;;;;;;5051685;28;20592;-67
2023/05/21 07:28:13;;;;;;;9.15;7.10;;;;;;;;;;5052083;28;20582;-67
2023/05/21 07:30:38;;;;;;;11.70;7.10;;;;;;;;;;5050829;28;20713;-67
2023/05/21 07:33:03;;;;;;;11.77;6.93;;;;;;;;;;5051177;28;20210;-68
2023/05/21 07:35:28;;;;;;;12.65;6.72;;;;;;;;;;5052106;28;20215;-68
2023/05/21 07:37:54;;;;;;;9.68;7.00;;;;;;;;;;5051679;28;20207;-67
2023/05/21 07:40:19;;;;;;;11.32;7.13;;;;;;;;;;5051648;28;20673;-67
2023/05/21 07:42:44;;;;;;;9.35;7.05;;;;;;;;;;5052346;28;20199;-68
2023/05/21 07:45:10;;;;;;;9.57;7.00;;;;;;;;;;5050945;28;20269;-67
2023/05/21 07:47:35;;;;;;;11.10;7.20;;;;;;;;;;5052070;28;20650;-67
2023/05/21 07:50:00;;;;;;;10.27;6.45;;;;;;;;;;5051886;28;20230;-68
2023/05/21 07:52:25;;;;;;;11.65;7.45;;;;;;;;;;5050972;28;20666;-69
2023/05/21 07:54:51;;;;;;;13.85;7.22;;;;;;;;;;5050621;28;20203;-68
2023/05/21 07:57:16;;;;;;;11.73;7.75;;;;;;;;;;5051604;28;20222;-67
2023/05/21 07:59:41;;;;;;;10.27;7.60;;;;;;;;;;5051141;28;20218;-68
2023/05/21 08:02:06;;;;;;;11.18;7.32;;;;;;;;;;5051321;28;20221;-67
2023/05/21 08:04:32;;;;;;;10.93;7.80;;;;;;;;;;5051815;28;20248;-68
2023/05/21 08:06:57;;;;;;;11.63;7.65;;;;;;;;;;5050958;28;20211;-68
2023/05/21 08:09:22;;;;;;;14.85;7.95;;;;;;;;;;5051265;28;20207;-68
2023/05/21 08:11:48;;;;;;;15.45;8.00;;;;;;;;;;5051141;28;20302;-67
2023/05/21 08:14:13;;;;;;;11.57;7.65;;;;;;;;;;5050212;28;20684;-68
2023/05/21 08:16:38;;;;;;;10.20;7.63;;;;;;;;;;5051361;28;20264;-67
2023/05/21 08:19:03;;;;;;;13.20;8.27;;;;;;;;;;5050696;28;20234;-68
2023/05/21 08:21:29;;;;;;;9.70;7.60;;;;;;;;;;5050641;28;20572;-68
2023/05/21 08:23:54;;;;;;;11.90;7.60;;;;;;;;;;5051407;28;20215;-68
2023/05/21 08:26:20;;;;;;;10.15;7.85;;;;;;;;;;5050901;28;20234;-68
2023/05/21 08:28:46;;;;;;;13.23;8.38;;;;;;;;;;5050604;28;20203;-68
2023/05/21 08:31:11;;;;;;;12.85;8.32;;;;;;;;;;5050566;28;20302;-67
2023/05/21 08:33:37;;;;;;;9.93;8.32;;;;;;;;;;5049857;28;20213;-68
2023/05/21 08:36:05;;;;;;;12.48;8.38;;;;;;;;;;5049984;28;20207;-67
2023/05/21 08:38:30;;;;;;;11.98;9.13;;;;;;;;;;5050849;28;20642;-69
2023/05/21 08:40:56;;;;;;;11.57;8.57;;;;;;;;;;5051079;28;20697;-68
2023/05/21 08:43:21;;;;;;;13.48;8.75;;;;;;;;;;5050007;28;20219;-67
2023/05/21 08:45:56;;;;;;;13.80;8.50;;;;;;;;;;5050701;28;20218;-68
2023/05/21 08:48:21;;;;;;;12.13;8.50;;;;;;;;;;5049670;28;20219;-68
2023/05/21 08:50:47;;;;;;;12.20;8.93;;;;;;;;;;5050659;28;20211;-68
2023/05/21 08:53:12;;;;;;;11.30;8.68;;;;;;;;;;5050242;28;20207;-67
2023/05/21 08:55:37;;;;;;;13.07;8.10;;;;;;;;;;5050098;28;20203;-68
2023/05/21 08:58:03;;;;;;;11.43;8.48;;;;;;;;;;5048894;28;20257;-67
2023/05/21 09:00:28;;;;;;;11.65;8.27;;;;;;;;;;5050732;28;20211;-68
2023/05/21 09:02:54;;;;;;;12.52;8.63;;;;;;;;;;5049862;28;20215;-68
2023/05/21 09:05:20;;;;;;;11.25;8.77;;;;;;;;;;5050178;28;20578;-68
2023/05/21 09:07:51;;;;;;;11.23;8.82;;;;;;;;;;5050240;28;20215;-68
2023/05/21 09:10:17;;;;;;;11.20;8.80;;;;;;;;;;5049427;28;20318;-68
2023/05/21 09:12:42;;;;;;;10.88;9.25;;;;;;;;;;5050368;28;20311;-68
2023/05/21 09:15:07;;;;;;;12.45;9.70;;;;;;;;;;5043993;28;20214;-68
2023/05/21 09:17:33;;;;;;;13.40;9.38;;;;;;;;;;5035558;28;20211;-68
2023/05/21 09:20:15;;;;;;;12.57;9.57;;;;;;;;;;5048473;28;20223;-69
2023/05/21 09:22:40;;;;;;;11.75;9.73;;;;;;;;;;5049970;28;20279;-68
2023/05/21 09:25:08;;;;;;;13.35;9.35;;;;;;;;;;5048671;28;20696;-67
2023/05/21 09:27:34;;;;;;;14.98;10.40;;;;;;;;;;5050389;28;20240;-68
2023/05/21 09:30:00;;;;;;;14.02;9.48;;;;;;;;;;5050388;28;20211;-68
2023/05/21 09:32:25;;;;;;;13.45;9.20;;;;;;;;;;5038574;28;20227;-68
2023/05/21 09:34:50;;;;;;;12.07;9.55;;;;;;;;;;5025240;28;20216;-68
2023/05/21 09:37:16;;;;;;;12.10;9.52;;;;;;;;;;5024724;28;20218;-68
2023/05/21 09:39:42;;;;;;;12.63;9.25;;;;;;;;;;5036321;28;20217;-68
2023/05/21 09:42:07;;;;;;;14.02;11.65;;;;;;;;;;5042377;28;20672;-67
2023/05/21 09:44:33;;;;;;;12.75;10.07;;;;;;;;;;5042336;28;20302;-68
2023/05/21 09:46:58;;;;;;;13.52;9.32;;;;;;;;;;5044022;28;20223;-68
2023/05/21 09:49:25;;;;;;;15.07;10.52;;;;;;;;;;5040498;28;20281;-68
2023/05/21 09:51:53;;;;;;;11.85;9.52;;;;;;;;;;5023939;28;20314;-68
2023/05/21 09:54:19;;;;;;;13.38;10.55;;;;;;;;;;5043154;28;20215;-68
2023/05/21 09:56:44;;;;;;;18.80;10.98;;;;;;;;;;5035423;28;20872;-68
2023/05/21 09:59:09;;;;;;;16.48;11.18;;;;;;;;;;5034229;28;20221;-68
2023/05/21 10:01:35;;;;;;;19.60;10.18;;;;;;;;;;5038057;28;20231;-68
2023/05/21 10:04:01;;;;;;;12.65;10.00;;;;;;;;;;5042151;28;20269;-64
2023/05/21 10:06:28;;;;;;;14.93;10.60;;;;;;;;;;5039531;28;20211;-69
2023/05/21 10:08:55;;;;;;;14.38;10.05;;;;;;;;;;5025502;28;20211;-69
2023/05/21 10:11:21;;;;;;;16.75;10.48;;;;;;;;;;5043355;28;20292;-68
2023/05/21 10:13:47;;;;;;;17.15;12.45;;;;;;;;;;5039665;28;20235;-68
2023/05/21 10:16:13;;;;;;;14.23;11.07;;;;;;;;;;5024602;28;20232;-68
2023/05/21 10:18:38;;;;;;;21.13;11.05;;;;;;;;;;5018434;28;20323;-68
2023/05/21 10:21:03;;;;;;;16.83;11.27;;;;;;;;;;5016041;28;20901;-68
2023/05/21 10:23:28;;;;;;;14.55;11.73;;;;;;;;;;5034622;28;20235;-68
2023/05/21 10:25:54;;;;;;;17.00;12.50;;;;;;;;;;5028833;28;20395;-68
2023/05/21 10:28:19;;;;;;;14.65;12.13;;;;;;;;;;5041278;28;20254;-69
2023/05/21 10:30:45;;;;;;;19.25;14.18;;;;;;;;;;5042078;28;20223;-67
2023/05/21 10:33:11;;;;;;;14.75;11.48;;;;;;;;;;5044652;28;20579;-67
2023/05/21 10:35:37;;;;;;;16.63;11.32;;;;;;;;;;5049876;28;20223;-67
2023/05/21 10:38:02;;;;;;;14.35;11.88;;;;;;;;;;5051677;28;20210;-67
2023/05/21 10:40:28;;;;;;;17.95;13.00;;;;;;;;;;5050722;28;20269;-67
2023/05/21 10:43:02;;;;;;;14.18;11.77;;;;;;;;;;5032815;28;20687;-67
2023/05/21 10:45:49;;;;;;;18.00;13.23;;;;;;;;;;5033107;28;20675;-68
2023/05/21 10:48:33;;;;;;;16.67;13.65;;;;;;;;;;5032303;28;20290;-67
2023/05/21 10:51:14;;;;;;;16.45;13.02;;;;;;;;;;5033162;28;20310;-68
2023/05/21 10:53:58;;;;;;;18.90;13.40;;;;;;;;;;5032897;28;20214;-68
2023/05/21 10:56:31;;;;;;;18.90;12.60;;;;;;;;;;5031977;28;20659;-67
2023/05/21 10:59:11;;;;;;;15.45;12.40;;;;;;;;;;5031731;28;20208;-67
2023/05/21 11:01:37;;;;;;;16.92;12.90;;;;;;;;;;5031594;28;20219;-68
2023/05/21 11:04:05;;;;;;;18.77;13.18;;;;;;;;;;5031774;28;20654;-67
2023/05/21 11:06:30;;;;;;;17.20;12.48;;;;;;;;;;5032739;28;20257;-67
2023/05/21 11:09:14;;;;;;;17.90;13.40;;;;;;;;;;5048957;28;20219;-67
2023/05/21 11:11:43;;;;;;;17.10;13.40;;;;;;;;;;5052417;28;20297;-67
2023/05/21 11:14:24;;;;;;;16.70;12.95;;;;;;;;;;5052092;28;20219;-66
2023/05/21 11:16:50;;;;;;;15.77;12.65;;;;;;;;;;5038818;28;20218;-66
2023/05/21 11:19:21;;;;;;;17.67;13.98;;;;;;;;;;5051898;28;20227;-66
2023/05/21 11:21:50;;;;;;;15.50;12.40;;;;;;;;;;5052538;28;20305;-68
2023/05/21 11:24:18;;;;;;;15.00;12.30;;;;;;;;;;5051533;28;20217;-68
2023/05/21 11:26:46;;;;;;;17.23;12.15;;;;;;;;;;5052488;28;20237;-67
2023/05/21 11:29:12;;;;;;;16.20;13.20;;;;;;;;;;5051974;28;20219;-67
2023/05/21 11:31:37;;;;;;;18.30;13.75;;;;;;;;;;5051573;28;20230;-68
2023/05/21 11:34:17;;;;;;;17.40;12.73;;;;;;;;;;5051897;28;20218;-67
2023/05/21 11:36:46;;;;;;;16.05;12.93;;;;;;;;;;5052146;28;20206;-68
2023/05/21 11:39:16;;;;;;;17.48;13.75;;;;;;;;;;5050951;28;20207;-69
2023/05/21 11:42:00;;;;;;;17.80;14.38;;;;;;;;;;5051977;28;20239;-68
2023/05/21 11:44:38;;;;;;;18.48;14.13;;;;;;;;;;5050883;28;20214;-69
2023/05/21 11:47:04;;;;;;;16.77;13.45;;;;;;;;;;5050858;28;20219;-69
2023/05/21 11:49:30;;;;;;;16.38;12.88;;;;;;;;;;5052083;28;20337;-69
2023/05/21 11:51:55;;;;;;;17.63;13.15;;;;;;;;;;5049818;28;20761;-70
2023/05/21 11:54:20;;;;;;;16.98;13.02;;;;;;;;;;5051522;28;20207;-69
2023/05/21 11:56:47;;;;;;;16.50;13.10;;;;;;;;;;5051751;28;20213;-70
2023/05/21 11:59:13;;;;;;;17.90;12.98;;;;;;;;;;5049431;28;20203;-69
2023/05/21 12:01:38;;;;;;;14.00;11.68;;;;;;;;;;5051096;28;20509;-69
2023/05/21 12:04:03;;;;;;;14.65;11.57;;;;;;;;;;5049599;28;20203;-69
2023/05/21 12:06:30;;;;;;;16.27;12.23;;;;;;;;;;5050270;28;20681;-69
2023/05/21 12:08:57;;;;;;;18.15;13.43;;;;;;;;;;5049042;28;20206;-70
2023/05/21 12:11:22;;;;;;;21.13;13.48;;;;;;;;;;5048469;28;20348;-69
2023/05/21 12:13:49;;;;;;;18.67;13.50;;;;;;;;;;5048301;28;20255;-70
2023/05/21 12:16:14;;;;;;;16.27;12.32;;;;;;;;;;5048550;28;20353;-69
2023/05/21 12:18:40;;;;;;;17.27;12.25;;;;;;;;;;5038961;28;20313;-69
2023/05/21 12:21:05;;;;;;;17.33;13.13;;;;;;;;;;5050199;28;20227;-69
2023/05/21 12:23:31;;;;;;;19.83;12.30;;;;;;;;;;5051400;28;20253;-70
2023/05/21 12:25:56;;;;;;;16.45;11.98;;;;;;;;;;5051312;28;20207;-70
2023/05/21 12:28:21;;;;;;;16.95;12.60;;;;;;;;;;5050057;28;20211;-69
2023/05/21 12:30:47;;;;;;;18.85;12.05;;;;;;;;;;5051192;28;20308;-70
2023/05/21 12:33:12;;;;;;;14.68;11.82;;;;;;;;;;5050489;28;20203;-69
2023/05/21 12:35:38;;;;;;;17.38;11.30;;;;;;;;;;5051038;28;20241;-69
2023/05/21 12:38:03;;;;;;;15.98;13.05;;;;;;;;;;5050571;28;20215;-69
2023/05/21 12:40:36;;;;;;;16.83;12.15;;;;;;;;;;5050372;28;20215;-69
2023/05/21 12:43:01;;;;;;;13.82;12.05;;;;;;;;;;5050426;28;20210;-68
2023/05/21 12:45:27;;;;;;;19.20;13.18;;;;;;;;;;5051014;28;20207;-69
2023/05/21 12:47:54;;;;;;;16.42;11.88;;;;;;;;;;5048760;28;20290;-70
2023/05/21 12:50:20;;;;;;;15.65;12.77;;;;;;;;;;5050319;28;20767;-69
2023/05/21 12:52:45;;;;;;;16.52;12.52;;;;;;;;;;5049440;28;20211;-69
2023/05/21 12:55:11;;;;;;;16.95;12.20;;;;;;;;;;5049566;28;20217;-69
2023/05/21 12:57:37;;;;;;;14.85;11.88;;;;;;;;;;5050564;28;20238;-69
2023/05/21 13:00:05;;;;;;;14.80;11.45;;;;;;;;;;5050280;28;20234;-69
2023/05/21 13:02:31;;;;;;;17.30;12.80;;;;;;;;;;5049968;28;20203;-70
2023/05/21 13:04:57;;;;;;;15.68;11.70;;;;;;;;;;5050678;28;20214;-69
2023/05/21 13:07:23;;;;;;;15.70;12.02;;;;;;;;;;5050030;28;20290;-69
2023/05/21 13:09:51;;;;;;;15.55;11.35;;;;;;;;;;5049673;28;20210;-69
2023/05/21 13:12:16;;;;;;;13.68;11.20;;;;;;;;;;5050133;28;20294;-69
2023/05/21 13:14:42;;;;;;;17.70;13.15;;;;;;;;;;5050423;28;20613;-69
2023/05/21 13:17:07;;;;;;;14.45;11.98;;;;;;;;;;5049149;28;20203;-68
2023/05/21 13:19:32;;;;;;;15.63;12.60;;;;;;;;;;5050186;28;20227;-69
2023/05/21 13:21:57;;;;;;;16.25;10.95;;;;;;;;;;5050330;28;20688;-69
2023/05/21 13:24:23;;;;;;;14.20;11.63;;;;;;;;;;5049200;28;20219;-70
2023/05/21 13:26:48;;;;;;;18.55;13.00;;;;;;;;;;5050337;28;20222;-69
2023/05/21 13:29:13;;;;;;;15.73;11.40;;;;;;;;;;5049621;28;20225;-69
2023/05/21 13:31:41;;;;;;;17.58;11.70;;;;;;;;;;5049594;28;20271;-70
2023/05/21 13:34:07;;;;;;;13.88;11.20;;;;;;;;;;5049746;28;20264;-69
2023/05/21 13:36:32;;;;;;;14.07;11.18;;;;;;;;;;5049524;28;20619;-69
2023/05/21 13:38:57;;;;;;;16.48;12.45;;;;;;;;;;5050183;28;20203;-69
2023/05/21 13:41:22;;;;;;;14.13;11.48;;;;;;;;;;5049696;28;20215;-69
2023/05/21 13:43:48;;;;;;;14.90;11.90;;;;;;;;;;5049124;28;20210;-69
2023/05/21 13:46:13;;;;;;;14.32;10.93;;;;;;;;;;5049660;28;20874;-69
2023/05/21 13:48:39;;;;;;;17.83;11.52;;;;;;;;;;5049938;28;20219;-69
2023/05/21 13:51:04;;;;;;;16.88;12.10;;;;;;;;;;5048856;28;20253;-69
2023/05/21 13:53:29;;;;;;;16.58;11.13;;;;;;;;;;5049913;28;20299;-69
2023/05/21 13:55:55;;;;;;;16.42;10.73;;;;;;;;;;5049838;28;20236;-69
2023/05/21 13:58:20;;;;;;;14.02;11.65;;;;;;;;;;5048794;28;20238;-69
2023/05/21 14:00:45;;;;;;;16.10;12.52;;;;;;;;;;5049909;28;20237;-69
2023/05/21 14:03:11;;;;;;;14.40;12.20;;;;;;;;;;5049516;28;20289;-69
2023/05/21 14:05:37;;;;;;;16.77;13.50;;;;;;;;;;5049353;28;20211;-69
2023/05/21 14:08:02;;;;;;;14.50;12.73;;;;;;;;;;5049517;28;20211;-68
2023/05/21 14:10:27;;;;;;;18.58;11.73;;;;;;;;;;5050491;28;20230;-69
2023/05/21 14:12:53;;;;;;;15.05;11.50;;;;;;;;;;5053363;28;20682;-69
2023/05/21 14:15:18;;;;;;;16.67;12.98;;;;;;;;;;5053148;28;20203;-69
2023/05/21 14:17:43;;;;;;;15.88;12.15;;;;;;;;;;5039584;28;20231;-69
2023/05/21 14:20:09;;;;;;;15.00;12.00;;;;;;;;;;5051973;28;20246;-69
2023/05/21 14:22:34;;;;;;;16.55;12.43;;;;;;;;;;5053473;28;20235;-69
2023/05/21 14:24:59;;;;;;;15.73;12.02;;;;;;;;;;5052947;28;20260;-71